createdAt,value
2022-12-19T00:00:37.869Z,7.47
2022-12-19T00:03:07.885Z,7.18
2022-12-19T00:05:38.106Z,7.28
2022-12-19T00:08:17.093Z,7.28
2022-12-19T00:10:54.964Z,7.13
2022-12-19T00:13:23.566Z,7.38
2022-12-19T00:15:52.203Z,7.45
2022-12-19T00:18:22.333Z,7.05
2022-12-19T00:20:58.319Z,7.10
2022-12-19T00:23:30.508Z,7.38
2022-12-19T00:26:08.279Z,7.25
2022-12-19T00:28:36.922Z,7.55
2022-12-19T00:31:05.928Z,6.13
2022-12-19T00:33:35.958Z,6.60
2022-12-19T00:36:11.224Z,7.28
2022-12-19T00:38:40.543Z,6.75
2022-12-19T00:41:10.293Z,7.35
2022-12-19T00:43:39.187Z,7.30
2022-12-19T00:46:09.370Z,6.57
2022-12-19T00:48:39.675Z,6.95
2022-12-19T00:51:11.221Z,7.35
2022-12-19T00:53:39.699Z,7.70
2022-12-19T00:56:12.623Z,6.82
2022-12-19T00:58:46.635Z,7.47
2022-12-19T01:01:18.944Z,7.38
2022-12-19T01:04:25.907Z,7.10
2022-12-19T01:06:37.671Z,7.32
2022-12-19T01:09:07.068Z,7.32
2022-12-19T01:11:53.287Z,6.68
2022-12-19T01:14:23.184Z,6.85
2022-12-19T01:16:52.146Z,6.60
2022-12-19T01:19:22.073Z,6.80
2022-12-19T01:21:50.504Z,7.40
2022-12-19T01:24:20.385Z,7.10
2022-12-19T01:26:51.126Z,6.93
2022-12-19T01:29:19.597Z,7.03
2022-12-19T01:31:49.529Z,6.38
2022-12-19T01:34:17.987Z,6.82
2022-12-19T01:36:47.725Z,6.97
2022-12-19T01:39:16.091Z,6.70
2022-12-19T01:41:44.528Z,7.55
2022-12-19T01:44:12.948Z,6.45
2022-12-19T01:46:44.607Z,6.60
2022-12-19T01:49:17.696Z,6.95
2022-12-19T01:51:54.830Z,7.05
2022-12-19T01:54:26.373Z,6.25
2022-12-19T01:57:02.357Z,6.07
2022-12-19T01:59:35.226Z,7.13
2022-12-19T02:02:11.968Z,7.00
2022-12-19T02:04:45.586Z,6.40
2022-12-19T02:07:17.279Z,6.85
2022-12-19T02:09:47.332Z,7.00
2022-12-19T02:12:19.602Z,6.72
2022-12-19T02:14:49.856Z,6.88
2022-12-19T02:17:25.530Z,6.80
2022-12-19T02:20:30.184Z,6.93
2022-12-19T02:23:27.899Z,7.15
2022-12-19T02:26:15.127Z,7.07
2022-12-19T02:29:12.485Z,7.15
2022-12-19T02:31:49.499Z,6.45
2022-12-19T02:34:29.887Z,6.53
2022-12-19T02:37:07.920Z,7.10
2022-12-19T02:39:45.476Z,6.30
2022-12-19T02:42:21.712Z,7.22
2022-12-19T02:44:53.248Z,6.43
2022-12-19T02:47:23.472Z,6.63
2022-12-19T02:49:52.456Z,7.15
2022-12-19T02:52:46.107Z,7.00
2022-12-19T02:55:19.673Z,7.10
2022-12-19T02:57:59.193Z,7.20
2022-12-19T03:00:29.421Z,6.43
2022-12-19T03:03:13.084Z,7.70
2022-12-19T03:05:51.092Z,6.85
2022-12-19T03:08:25.572Z,7.10
2022-12-19T03:10:59.680Z,7.03
2022-12-19T03:13:31.940Z,6.72
2022-12-19T03:16:03.627Z,6.70
2022-12-19T03:18:34.849Z,6.93
2022-12-19T03:21:09.793Z,6.82
2022-12-19T03:23:39.512Z,6.75
2022-12-19T03:26:10.813Z,6.95
2022-12-19T03:28:43.794Z,7.13
2022-12-19T03:31:15.347Z,7.07
2022-12-19T03:33:49.342Z,6.68
2022-12-19T03:36:22.434Z,6.68
2022-12-19T03:38:51.301Z,6.45
2022-12-19T03:41:42.063Z,6.88
2022-12-19T03:44:11.433Z,6.25
2022-12-19T03:46:46.189Z,6.78
2022-12-19T03:49:16.361Z,7.07
2022-12-19T03:51:59.121Z,7.22
2022-12-19T03:54:31.175Z,6.80
2022-12-19T03:57:07.237Z,6.50
2022-12-19T03:59:41.090Z,7.05
2022-12-19T04:02:10.770Z,7.53
2022-12-19T04:04:46.987Z,7.47
2022-12-19T04:07:17.229Z,6.50
2022-12-19T04:09:47.274Z,6.85
2022-12-19T04:12:18.949Z,7.03
2022-12-19T04:14:48.262Z,6.35
2022-12-19T04:17:25.785Z,6.60
2022-12-19T04:20:02.341Z,6.65
2022-12-19T04:22:36.288Z,6.53
2022-12-19T04:25:07.898Z,6.72
2022-12-19T04:27:39.875Z,5.95
2022-12-19T04:30:09.732Z,7.60
2022-12-19T04:32:39.593Z,6.53
2022-12-19T04:35:09.953Z,6.10
2022-12-19T04:37:38.578Z,7.47
2022-12-19T04:40:09.288Z,6.50
2022-12-19T04:42:38.225Z,6.50
2022-12-19T04:45:08.045Z,7.03
2022-12-19T04:47:36.587Z,7.00
2022-12-19T04:50:06.018Z,6.63
2022-12-19T04:52:35.848Z,6.10
2022-12-19T04:55:04.563Z,6.47
2022-12-19T04:57:32.979Z,6.22
2022-12-19T05:00:03.766Z,6.00
2022-12-19T05:02:32.653Z,6.30
2022-12-19T05:05:01.201Z,6.32
2022-12-19T05:07:29.597Z,6.93
2022-12-19T05:09:59.345Z,6.35
2022-12-19T05:12:29.412Z,6.45
2022-12-19T05:14:57.865Z,6.97
2022-12-19T05:17:26.348Z,6.82
2022-12-19T05:19:54.850Z,6.05
2022-12-19T05:22:23.278Z,6.00
2022-12-19T05:24:51.677Z,6.90
2022-12-19T05:27:21.434Z,6.88
2022-12-19T05:29:49.820Z,6.90
2022-12-19T05:32:18.314Z,6.80
2022-12-19T05:34:46.708Z,6.63
2022-12-19T05:37:15.068Z,6.03
2022-12-19T05:39:43.431Z,6.32
2022-12-19T05:42:12.601Z,6.20
2022-12-19T05:44:42.560Z,5.43
2022-12-19T05:47:10.930Z,6.32
2022-12-19T05:49:39.309Z,5.85
2022-12-19T05:52:07.789Z,6.07
2022-12-19T05:54:36.392Z,5.00
2022-12-19T05:57:04.988Z,6.18
2022-12-19T05:59:33.388Z,5.20
2022-12-19T06:02:03.355Z,6.03
2022-12-19T06:04:32.134Z,5.63
2022-12-19T06:07:00.489Z,5.22
2022-12-19T06:09:28.967Z,5.70
2022-12-19T06:11:57.497Z,5.43
2022-12-19T06:14:25.955Z,5.05
2022-12-19T06:16:54.375Z,5.53
2022-12-19T06:19:24.409Z,5.60
2022-12-19T06:21:52.765Z,5.35
2022-12-19T06:24:21.665Z,5.72
2022-12-19T06:26:50.067Z,5.50
2022-12-19T06:29:18.645Z,5.57
2022-12-19T06:31:47.219Z,5.30
2022-12-19T06:34:39.479Z,6.03
2022-12-19T06:37:08.255Z,5.05
2022-12-19T06:39:37.093Z,5.15
2022-12-19T06:42:22.865Z,5.57
2022-12-19T06:44:51.948Z,4.72
2022-12-19T06:47:22.078Z,5.07
2022-12-19T06:49:50.602Z,5.25
2022-12-19T06:52:20.438Z,4.97
2022-12-19T06:54:48.886Z,5.55
2022-12-19T06:57:17.394Z,5.43
2022-12-19T06:59:45.916Z,4.63
2022-12-19T07:02:26.031Z,5.00
2022-12-19T07:07:29.510Z,4.68
2022-12-19T07:09:58.044Z,4.50
2022-12-19T07:12:26.556Z,5.05
2022-12-19T07:14:55.001Z,5.28
2022-12-19T07:17:25.338Z,4.70
2022-12-19T07:19:55.496Z,4.72
2022-12-19T07:22:24.806Z,4.20
2022-12-19T07:24:55.952Z,4.78
2022-12-19T07:27:25.663Z,4.90
2022-12-19T07:29:56.982Z,4.88
2022-12-19T07:32:25.437Z,4.35
2022-12-19T07:34:54.221Z,4.60
2022-12-19T07:37:22.709Z,4.85
2022-12-19T07:39:52.987Z,5.05
2022-12-19T07:42:22.819Z,5.07
2022-12-19T07:44:51.872Z,4.57
2022-12-19T07:47:20.341Z,4.35
2022-12-19T07:49:48.765Z,4.30
2022-12-19T07:52:17.233Z,4.38
2022-12-19T07:54:45.685Z,4.90
2022-12-19T07:57:14.108Z,4.00
2022-12-19T07:59:43.900Z,4.43
2022-12-19T08:02:12.667Z,4.82
2022-12-19T08:04:41.168Z,3.70
2022-12-19T08:07:09.667Z,4.80
2022-12-19T08:09:38.062Z,4.53
2022-12-19T08:12:06.974Z,4.20
2022-12-19T08:14:35.372Z,4.40
2022-12-19T08:17:21.760Z,3.83
2022-12-19T08:19:50.392Z,3.80
2022-12-19T08:22:18.809Z,3.97
2022-12-19T08:24:47.215Z,4.40
2022-12-19T08:27:17.046Z,4.40
2022-12-19T08:29:45.502Z,4.28
2022-12-19T08:32:20.816Z,3.97
2022-12-19T08:34:50.281Z,4.45
2022-12-19T08:37:18.704Z,4.35
2022-12-19T08:39:47.116Z,3.78
2022-12-19T08:42:15.495Z,4.32
2022-12-19T08:44:44.000Z,4.40
2022-12-19T08:47:12.396Z,4.10
2022-12-19T08:49:42.245Z,4.10
2022-12-19T08:52:10.711Z,4.03
2022-12-19T08:54:39.344Z,3.97
2022-12-19T08:57:07.824Z,4.10
2022-12-19T08:59:36.235Z,3.47
2022-12-19T09:02:06.192Z,3.72
2022-12-19T09:06:01.830Z,4.13
2022-12-19T09:07:24.913Z,4.03
2022-12-19T09:09:54.011Z,4.20
2022-12-19T09:12:22.565Z,4.55
2022-12-19T09:14:51.104Z,4.18
2022-12-19T09:17:19.568Z,4.00
2022-12-19T09:19:48.494Z,3.80
2022-12-19T09:22:17.533Z,3.92
2022-12-19T09:24:47.423Z,3.95
2022-12-19T09:27:16.176Z,4.20
2022-12-19T09:29:44.793Z,4.20
2022-12-19T09:32:13.428Z,4.40
2022-12-19T09:34:41.900Z,4.45
2022-12-19T09:37:16.830Z,4.15
2022-12-19T09:39:48.072Z,4.10
2022-12-19T09:42:29.343Z,4.18
2022-12-19T09:45:31.785Z,3.97
2022-12-19T09:48:02.585Z,4.38
2022-12-19T09:50:40.097Z,4.65
2022-12-19T09:53:17.894Z,3.85
2022-12-19T09:55:48.788Z,4.03
2022-12-19T09:58:28.010Z,4.40
2022-12-19T10:01:00.260Z,4.03
2022-12-19T10:03:39.765Z,3.83
2022-12-19T10:07:10.429Z,4.15
2022-12-19T10:11:56.373Z,4.20
2022-12-19T10:12:44.270Z,4.32
2022-12-19T10:15:12.984Z,3.97
2022-12-19T10:18:12.767Z,4.05
2022-12-19T10:20:46.321Z,4.00
2022-12-19T10:23:31.417Z,3.97
2022-12-19T10:26:07.427Z,4.72
2022-12-19T10:28:54.135Z,5.07
2022-12-19T10:31:31.009Z,5.32
2022-12-19T10:34:05.811Z,4.93
2022-12-19T10:37:12.899Z,5.30
2022-12-19T10:39:37.155Z,4.20
2022-12-19T10:42:15.420Z,4.50
2022-12-19T10:44:46.814Z,4.85
2022-12-19T10:47:17.381Z,4.43
2022-12-19T10:49:45.871Z,4.85
2022-12-19T10:52:14.960Z,4.57
2022-12-19T10:54:44.265Z,3.97
2022-12-19T10:57:25.288Z,4.35
2022-12-19T10:59:58.961Z,5.25
2022-12-19T11:02:41.236Z,5.13
2022-12-19T11:05:24.751Z,4.80
2022-12-19T11:08:04.969Z,4.93
2022-12-19T11:19:54.968Z,4.78
2022-12-19T11:22:09.585Z,5.10
2022-12-19T11:29:17.484Z,5.03
2022-12-19T11:29:31.804Z,4.72
2022-12-19T11:30:35.212Z,4.40
2022-12-19T11:30:36.287Z,5.32
2022-12-19T11:34:06.484Z,4.63
2022-12-19T11:36:40.136Z,4.80
2022-12-19T11:39:17.588Z,3.97
2022-12-19T11:41:54.666Z,4.40
2022-12-19T11:44:30.432Z,4.25
2022-12-19T11:47:12.669Z,4.60
2022-12-19T11:49:48.345Z,4.10
2022-12-19T11:55:22.265Z,3.83
2022-12-19T11:57:51.492Z,3.95
2022-12-19T12:00:23.373Z,5.00
2022-12-19T12:03:15.503Z,4.47
2022-12-19T12:05:46.410Z,4.97
2022-12-19T12:10:48.743Z,4.70
2022-12-19T12:16:09.990Z,4.55
2022-12-19T12:25:01.511Z,4.30
2022-12-19T12:31:18.381Z,4.22
2022-12-19T12:31:31.194Z,4.40
2022-12-19T12:31:31.375Z,4.50
2022-12-19T12:31:40.920Z,4.30
2022-12-19T12:31:42.781Z,3.50
2022-12-19T12:35:42.373Z,4.30
2022-12-19T12:38:51.641Z,4.30
2022-12-19T12:41:48.063Z,4.25
2022-12-19T12:44:16.650Z,4.30
2022-12-19T12:46:50.153Z,4.45
2022-12-19T12:49:33.395Z,5.57
2022-12-19T12:52:04.156Z,5.53
2022-12-19T12:54:37.214Z,5.57
2022-12-19T12:57:06.190Z,4.93
2022-12-19T12:59:34.685Z,5.20
2022-12-19T13:02:14.473Z,5.30
2022-12-19T13:04:55.711Z,5.05
2022-12-19T13:07:42.421Z,4.90
2022-12-19T13:10:25.387Z,4.82
2022-12-19T13:13:01.631Z,4.70
2022-12-19T13:15:37.427Z,4.15
2022-12-19T13:18:14.108Z,4.30
2022-12-19T13:20:46.303Z,4.55
2022-12-19T13:23:24.494Z,4.30
2022-12-19T13:25:55.561Z,5.03
2022-12-19T13:28:39.959Z,4.60
2022-12-19T13:31:22.767Z,4.45
2022-12-19T13:34:20.303Z,5.07
2022-12-19T13:39:54.507Z,4.13
2022-12-19T13:39:54.511Z,4.57
2022-12-19T13:42:55.984Z,4.40
2022-12-19T13:45:40.923Z,5.00
2022-12-19T13:48:16.325Z,5.00
2022-12-19T13:50:49.544Z,4.78
2022-12-19T13:53:19.240Z,4.70
2022-12-19T13:55:48.024Z,5.07
2022-12-19T13:58:28.886Z,4.57
2022-12-19T14:01:04.019Z,5.28
2022-12-19T14:03:38.160Z,4.55
2022-12-19T14:06:18.135Z,4.72
2022-12-19T14:09:41.524Z,4.63
2022-12-19T14:12:28.201Z,3.88
2022-12-19T14:15:12.489Z,4.78
2022-12-19T14:17:40.202Z,4.63
2022-12-19T14:22:07.201Z,4.30
2022-12-19T14:23:08.018Z,4.13
2022-12-19T14:28:15.352Z,4.90
2022-12-19T14:28:38.594Z,4.65
2022-12-19T14:31:15.325Z,4.70
2022-12-19T14:34:04.642Z,4.97
2022-12-19T14:36:39.436Z,4.95
2022-12-19T14:39:24.282Z,5.60
2022-12-19T14:42:31.759Z,5.30
2022-12-19T14:52:35.215Z,4.25
2022-12-19T14:53:51.548Z,5.22
2022-12-19T14:54:40.197Z,5.45
2022-12-19T14:56:00.495Z,5.07
2022-12-19T14:57:25.610Z,4.90
2022-12-19T15:01:07.489Z,5.55
2022-12-19T15:03:19.779Z,5.10
2022-12-19T15:05:50.281Z,4.85
2022-12-19T15:09:50.670Z,5.20
2022-12-19T15:11:48.293Z,6.07
2022-12-19T15:14:54.653Z,5.95
2022-12-19T15:17:21.712Z,4.97
2022-12-19T15:19:50.849Z,5.22
2022-12-19T15:22:20.787Z,5.90
2022-12-19T15:24:49.211Z,5.10
2022-12-19T15:27:18.390Z,5.50
2022-12-19T15:29:46.856Z,5.32
2022-12-19T15:32:16.070Z,5.13
2022-12-19T15:34:50.921Z,5.22
2022-12-19T15:37:21.865Z,5.20
2022-12-19T15:39:50.484Z,5.35
2022-12-19T15:42:22.924Z,5.75
2022-12-19T15:44:53.374Z,4.82
2022-12-19T15:47:32.138Z,4.78
2022-12-19T15:50:05.482Z,5.75
2022-12-19T15:52:35.280Z,4.93
2022-12-19T15:55:03.789Z,5.22
2022-12-19T15:57:35.287Z,5.18
2022-12-19T16:00:08.272Z,4.88
2022-12-19T16:05:29.271Z,4.95
2022-12-19T16:07:59.749Z,5.43
2022-12-19T16:10:28.524Z,4.95
2022-12-19T16:12:58.486Z,5.07
2022-12-19T16:15:29.463Z,5.32
2022-12-19T16:17:59.455Z,5.43
2022-12-19T16:20:30.227Z,5.43
2022-12-19T16:23:00.219Z,5.35
2022-12-19T16:25:34.800Z,5.15
2022-12-19T16:28:05.429Z,5.28
2022-12-19T16:30:35.280Z,5.32
2022-12-19T16:33:03.932Z,5.43
2022-12-19T16:36:03.071Z,4.97
2022-12-19T16:38:22.821Z,5.05
2022-12-19T16:40:52.486Z,4.47
2022-12-19T16:43:28.217Z,4.80
2022-12-19T16:46:01.113Z,4.53
2022-12-19T16:48:31.046Z,4.97
2022-12-19T16:51:00.539Z,5.47
2022-12-19T16:53:30.321Z,4.05
2022-12-19T16:56:00.920Z,4.38
2022-12-19T16:58:30.441Z,4.55
2022-12-19T17:00:59.056Z,4.30
2022-12-19T17:03:33.491Z,4.10
2022-12-19T17:06:02.568Z,4.50
2022-12-19T17:08:32.597Z,4.05
2022-12-19T17:11:01.051Z,4.15
2022-12-19T17:13:29.658Z,4.13
2022-12-19T17:16:05.857Z,4.10
2022-12-19T17:18:36.597Z,4.15
2022-12-19T17:21:05.373Z,4.13
2022-12-19T17:23:35.192Z,4.10
2022-12-19T17:26:03.781Z,4.40
2022-12-19T17:28:32.272Z,4.05
2022-12-19T17:31:05.183Z,4.20
2022-12-19T17:33:36.574Z,4.03
2022-12-19T17:36:07.433Z,4.43
2022-12-19T17:38:37.385Z,4.45
2022-12-19T17:41:06.027Z,4.30
2022-12-19T17:43:34.494Z,4.60
2022-12-19T17:46:03.067Z,4.20
2022-12-19T17:48:33.428Z,4.40
2022-12-19T17:51:01.872Z,4.07
2022-12-19T17:53:30.763Z,4.15
2022-12-19T17:56:00.534Z,3.85
2022-12-19T17:58:29.760Z,4.22
2022-12-19T18:00:58.258Z,4.47
2022-12-19T18:03:27.983Z,3.97
2022-12-19T18:05:58.819Z,3.90
2022-12-19T18:08:29.873Z,4.03
2022-12-19T18:11:02.111Z,3.42
2022-12-19T18:13:32.263Z,4.30
2022-12-19T18:16:02.155Z,4.07
2022-12-19T18:18:32.618Z,4.20
2022-12-19T18:21:02.121Z,3.70
2022-12-19T18:23:31.385Z,3.97
2022-12-19T18:26:02.669Z,3.70
2022-12-19T18:28:31.572Z,3.97
2022-12-19T18:31:03.745Z,3.72
2022-12-19T18:33:38.518Z,4.00
2022-12-19T18:36:08.719Z,3.65
2022-12-19T18:38:37.246Z,3.78
2022-12-19T18:41:10.573Z,3.33
2022-12-19T18:43:39.055Z,3.60
2022-12-19T18:46:08.206Z,3.55
2022-12-19T18:48:38.095Z,3.65
2022-12-19T18:51:07.054Z,4.00
2022-12-19T18:53:36.423Z,4.00
2022-12-19T18:56:07.120Z,4.40
2022-12-19T18:58:35.784Z,3.90
2022-12-19T19:01:06.226Z,4.60
2022-12-19T19:03:39.003Z,4.57
2022-12-19T19:06:18.021Z,4.05
2022-12-19T19:08:46.553Z,3.92
2022-12-19T19:11:39.903Z,4.00
2022-12-19T19:14:09.649Z,4.20
2022-12-19T19:16:39.906Z,4.50
2022-12-19T19:19:11.436Z,4.50
2022-12-19T19:21:41.558Z,3.90
2022-12-19T19:24:13.260Z,4.10
2022-12-19T19:26:43.007Z,4.00
2022-12-19T19:29:13.427Z,3.70
2022-12-19T19:31:46.693Z,3.53
2022-12-19T19:34:19.536Z,3.80
2022-12-19T19:36:50.747Z,3.85
2022-12-19T19:39:19.897Z,3.58
2022-12-19T19:41:49.713Z,3.45
2022-12-19T19:44:18.244Z,3.70
2022-12-19T19:46:46.876Z,3.88
2022-12-19T19:49:15.548Z,3.50
2022-12-19T19:51:43.968Z,3.53
2022-12-19T19:54:12.606Z,3.60
2022-12-19T19:56:41.098Z,3.50
2022-12-19T19:59:10.893Z,3.50
2022-12-19T20:01:39.404Z,3.72
2022-12-19T20:04:07.992Z,3.45
2022-12-19T20:06:36.511Z,3.50
2022-12-19T20:09:05.456Z,3.88
2022-12-19T20:11:34.005Z,3.85
2022-12-19T20:14:02.563Z,3.67
2022-12-19T20:16:32.539Z,3.60
2022-12-19T20:19:01.010Z,3.58
2022-12-19T20:21:30.663Z,3.20
2022-12-19T20:23:59.097Z,3.58
2022-12-19T20:26:27.928Z,3.55
2022-12-19T20:28:56.335Z,3.58
2022-12-19T20:31:25.461Z,3.50
2022-12-19T20:33:56.671Z,4.20
2022-12-19T20:36:26.039Z,3.63
2022-12-19T20:38:54.476Z,3.47
2022-12-19T20:41:23.059Z,3.38
2022-12-19T20:43:52.944Z,3.65
2022-12-19T20:46:22.497Z,3.50
2022-12-19T20:48:51.441Z,3.30
2022-12-19T20:51:22.579Z,3.65
2022-12-19T20:53:54.481Z,3.33
2022-12-19T20:56:25.749Z,3.65
2022-12-19T20:58:54.409Z,3.20
2022-12-19T21:01:25.202Z,3.53
2022-12-19T21:03:54.076Z,3.38
2022-12-19T21:06:26.987Z,3.53
2022-12-19T21:08:56.562Z,3.35
2022-12-19T21:11:26.144Z,3.47
2022-12-19T21:13:54.947Z,3.15
2022-12-19T21:16:24.455Z,3.15
2022-12-19T21:18:53.112Z,3.45
2022-12-19T21:21:25.893Z,3.53
2022-12-19T21:23:55.725Z,3.83
2022-12-19T21:26:26.083Z,3.20
2022-12-19T21:28:55.012Z,3.28
2022-12-19T21:31:26.024Z,3.47
2022-12-19T21:33:56.211Z,3.47
2022-12-19T21:36:27.722Z,3.22
2022-12-19T21:38:58.617Z,2.95
2022-12-19T21:41:27.107Z,3.33
2022-12-19T21:43:57.724Z,3.13
2022-12-19T21:46:28.133Z,3.38
2022-12-19T21:48:57.988Z,3.20
2022-12-19T21:51:31.723Z,3.25
2022-12-19T21:54:02.278Z,3.20
2022-12-19T21:56:32.114Z,3.20
2022-12-19T21:59:02.327Z,3.58
2022-12-19T22:01:32.666Z,3.42
2022-12-19T22:04:02.777Z,3.10
2022-12-19T22:06:34.913Z,3.13
2022-12-19T22:09:04.202Z,3.25
2022-12-19T22:11:32.975Z,2.70
2022-12-19T22:14:01.940Z,3.45
2022-12-19T22:16:30.490Z,3.17
2022-12-19T22:18:59.078Z,3.20
2022-12-19T22:21:28.153Z,2.65
2022-12-19T22:23:59.854Z,3.10
2022-12-19T22:26:30.565Z,3.63
2022-12-19T22:28:59.694Z,3.22
2022-12-19T22:31:30.507Z,3.17
2022-12-19T22:34:00.884Z,2.60
2022-12-19T22:36:31.431Z,2.78
2022-12-19T22:39:03.206Z,3.03
2022-12-19T22:41:33.067Z,3.42
2022-12-19T22:44:02.098Z,3.10
2022-12-19T22:46:32.730Z,3.30
2022-12-19T22:49:03.986Z,3.13
2022-12-19T22:51:34.020Z,3.25
2022-12-19T22:54:04.436Z,4.03
2022-12-19T22:56:34.825Z,2.80
2022-12-19T22:59:05.301Z,3.13
2022-12-19T23:01:36.704Z,3.17
2022-12-19T23:04:06.633Z,2.88
2022-12-19T23:06:37.368Z,3.03
2022-12-19T23:09:09.553Z,3.10
2022-12-19T23:11:40.487Z,2.63
2022-12-19T23:14:13.020Z,3.28
2022-12-19T23:16:41.833Z,3.10
2022-12-19T23:19:11.537Z,3.53
2022-12-19T23:21:40.181Z,2.70
2022-12-19T23:24:10.051Z,3.10
2022-12-19T23:26:39.241Z,2.80
2022-12-19T23:29:10.372Z,2.70
2022-12-19T23:31:41.220Z,3.40
2022-12-19T23:34:10.442Z,3.10
2022-12-19T23:39:29.709Z,2.97
2022-12-19T23:41:58.499Z,2.58
2022-12-19T23:44:27.017Z,2.88
2022-12-19T23:47:02.588Z,2.90
2022-12-19T23:49:31.421Z,3.00
2022-12-19T23:52:00.328Z,3.00
2022-12-19T23:54:30.314Z,2.75
2022-12-19T23:56:58.822Z,2.72
2022-12-19T23:59:27.726Z,2.90
